2016 Cux-Wetter.de -Die Nutzung der Wetterdaten nur mit ausdrcklicher Genehmigung
Wetterdaten: Woche 23.05.16 - 29.05.16 (KW21)
Datum Zeit Temp. A. Feuchte A. Luftdruck Regen Wind Richtung Sonnenschein Solar Taupunkt Windchill Windben
23.05.2016 00:00 14,2 C 95 % 1007,3 hPa 0,0 l/m 0,2 km/h (0 Bft) N 0,00 h 0 W/m 13,4 C 14,2 C 1,4 km/h (1 Bft)
23.05.2016 01:00 14,2 C 95 % 1007,4 hPa 0,0 l/m 0,1 km/h (0 Bft) N 0,00 h 0 W/m 13,4 C 14,2 C 0,6 km/h (0 Bft)
23.05.2016 02:00 14,1 C 95 % 1007,3 hPa 0,0 l/m 0,2 km/h (0 Bft) N 0,00 h 0 W/m 13,4 C 14,1 C 0,9 km/h (0 Bft)
23.05.2016 03:00 14,1 C 95 % 1006,8 hPa 0,0 l/m 0,4 km/h (0 Bft) N 0,00 h 0 W/m 13,4 C 14,1 C 1,6 km/h (1 Bft)
23.05.2016 04:00 14,2 C 96 % 1006,9 hPa 0,2 l/m 0,2 km/h (0 Bft) N 0,00 h 0 W/m 13,6 C 14,2 C 1,0 km/h (0 Bft)
23.05.2016 05:00 14,3 C 96 % 1007,0 hPa 0,2 l/m 0,9 km/h (0 Bft) NO 0,00 h 0 W/m 13,7 C 14,3 C 2,9 km/h (1 Bft)
23.05.2016 06:00 14,2 C 96 % 1006,7 hPa 0,2 l/m 2,1 km/h (1 Bft) NO 0,00 h 8 W/m 13,6 C 14,2 C 5,8 km/h (2 Bft)
23.05.2016 07:00 14,2 C 97 % 1006,7 hPa 0,4 l/m 1,8 km/h (1 Bft) N-NO 0,00 h 23 W/m 13,7 C 14,2 C 5,4 km/h (1 Bft)
23.05.2016 08:00 14,4 C 97 % 1007,0 hPa 0,0 l/m 2,9 km/h (1 Bft) O-NO 0,00 h 35 W/m 13,9 C 14,4 C 7,9 km/h (2 Bft)
23.05.2016 09:00 15,1 C 97 % 1007,3 hPa 0,0 l/m 2,5 km/h (1 Bft) O-NO 0,00 h 87 W/m 14,7 C 15,1 C 6,7 km/h (2 Bft)
23.05.2016 10:00 16,2 C 96 % 1007,4 hPa 0,0 l/m 1,5 km/h (1 Bft) O 0,00 h 66 W/m 15,6 C 16,2 C 4,0 km/h (1 Bft)
23.05.2016 11:00 16,7 C 95 % 1007,6 hPa 0,2 l/m 3,3 km/h (1 Bft) O-NO 0,00 h 140 W/m 15,8 C 16,4 C 6,4 km/h (2 Bft)
23.05.2016 12:00 17,9 C 86 % 1007,9 hPa 0,0 l/m 8,0 km/h (2 Bft) SW 0,00 h 200 W/m 15,5 C 17,2 C 13,0 km/h (3 Bft)
23.05.2016 13:00 17,8 C 84 % 1008,1 hPa 0,0 l/m 8,3 km/h (2 Bft) SW 0,00 h 234 W/m 15,0 C 16,9 C 13,8 km/h (3 Bft)
23.05.2016 14:00 19,0 C 82 % 1008,4 hPa 0,0 l/m 5,8 km/h (2 Bft) W-SW 0,30 h 378 W/m 15,7 C 18,9 C 10,6 km/h (2 Bft)
23.05.2016 15:00 18,8 C 82 % 1008,6 hPa 0,0 l/m 6,6 km/h (2 Bft) NW 0,00 h 181 W/m 15,7 C 18,5 C 12,5 km/h (2 Bft)
23.05.2016 16:00 16,8 C 90 % 1008,9 hPa 0,0 l/m 8,7 km/h (2 Bft) N 0,00 h 96 W/m 15,1 C 15,6 C 16,4 km/h (3 Bft)
23.05.2016 17:00 15,5 C 93 % 1009,2 hPa 0,2 l/m 11,5 km/h (2 Bft) N-NW 0,00 h 44 W/m 14,4 C 13,1 C 21,7 km/h (4 Bft)
23.05.2016 18:00 15,1 C 93 % 1009,5 hPa 0,0 l/m 12,4 km/h (2 Bft) N 0,00 h 53 W/m 14,0 C 12,2 C 22,6 km/h (4 Bft)
23.05.2016 19:00 14,4 C 92 % 1010,4 hPa 0,2 l/m 15,9 km/h (3 Bft) N-NW 0,00 h 18 W/m 13,1 C 10,2 C 27,8 km/h (5 Bft)
23.05.2016 20:00 13,4 C 92 % 1010,9 hPa 0,0 l/m 18,7 km/h (3 Bft) N-NW 0,00 h 10 W/m 12,1 C 8,1 C 31,9 km/h (5 Bft)
23.05.2016 21:00 13,0 C 91 % 1011,3 hPa 0,0 l/m 19,2 km/h (3 Bft) N-NW 0,00 h 0 W/m 11,6 C 7,4 C 32,0 km/h (5 Bft)
23.05.2016 22:00 12,7 C 92 % 1011,5 hPa 0,0 l/m 17,2 km/h (3 Bft) N-NW 0,00 h 0 W/m 11,4 C 7,7 C 30,7 km/h (5 Bft)
23.05.2016 23:00 12,8 C 92 % 1011,8 hPa 0,0 l/m 13,2 km/h (3 Bft) N 0,00 h 0 W/m 11,5 C 9,3 C 24,0 km/h (4 Bft)
24.05.2016 00:00 12,6 C 93 % 1012,1 hPa 0,2 l/m 15,7 km/h (3 Bft) N-NW 0,00 h 0 W/m 11,4 C 8,0 C 26,8 km/h (4 Bft)
24.05.2016 01:00 12,2 C 92 % 1012,2 hPa 0,0 l/m 16,2 km/h (3 Bft) N-NW 0,00 h 0 W/m 11,0 C 7,4 C 27,4 km/h (5 Bft)
24.05.2016 02:00 12,0 C 92 % 1012,3 hPa 0,0 l/m 16,1 km/h (3 Bft) NW 0,00 h 0 W/m 10,7 C 7,1 C 26,3 km/h (4 Bft)
24.05.2016 03:00 11,8 C 91 % 1012,2 hPa 0,0 l/m 15,1 km/h (3 Bft) N-NW 0,00 h 0 W/m 10,3 C 7,3 C 25,1 km/h (4 Bft)
24.05.2016 04:00 11,6 C 90 % 1012,3 hPa 0,0 l/m 15,3 km/h (3 Bft) N-NW 0,00 h 0 W/m 10,1 C 7,0 C 26,0 km/h (4 Bft)
24.05.2016 05:00 11,5 C 90 % 1012,1 hPa 0,0 l/m 14,3 km/h (3 Bft) N 0,00 h 5 W/m 9,9 C 7,3 C 24,3 km/h (4 Bft)
24.05.2016 06:00 11,4 C 89 % 1011,8 hPa 0,0 l/m 14,3 km/h (3 Bft) N-NW 0,00 h 19 W/m 9,7 C 7,2 C 24,4 km/h (4 Bft)
24.05.2016 07:00 11,5 C 88 % 1011,9 hPa 0,0 l/m 11,6 km/h (2 Bft) NW 0,00 h 40 W/m 9,6 C 8,5 C 21,8 km/h (4 Bft)
24.05.2016 08:00 11,4 C 89 % 1012,3 hPa 0,2 l/m 9,8 km/h (2 Bft) NW 0,00 h 28 W/m 9,6 C 9,3 C 18,9 km/h (3 Bft)
24.05.2016 09:00 11,1 C 93 % 1012,6 hPa 0,4 l/m 6,9 km/h (2 Bft) NW 0,00 h 29 W/m 10,0 C 10,5 C 15,4 km/h (3 Bft)
24.05.2016 10:00 11,2 C 94 % 1012,4 hPa 1,0 l/m 6,8 km/h (2 Bft) W 0,00 h 51 W/m 10,2 C 10,6 C 14,6 km/h (3 Bft)
24.05.2016 11:00 11,5 C 94 % 1012,2 hPa 0,0 l/m 6,8 km/h (2 Bft) W-NW 0,00 h 75 W/m 10,5 C 11,0 C 14,6 km/h (3 Bft)
24.05.2016 12:00 12,0 C 92 % 1012,2 hPa 0,0 l/m 6,4 km/h (2 Bft) W-NW 0,00 h 67 W/m 10,7 C 11,7 C 14,3 km/h (3 Bft)
24.05.2016 13:00 12,3 C 91 % 1012,2 hPa 0,0 l/m 6,3 km/h (2 Bft) W 0,00 h 78 W/m 10,9 C 12,1 C 13,5 km/h (3 Bft)
24.05.2016 14:00 12,7 C 90 % 1012,0 hPa 0,0 l/m 7,3 km/h (2 Bft) W 0,00 h 102 W/m 11,1 C 12,0 C 14,2 km/h (3 Bft)
24.05.2016 15:00 12,8 C 91 % 1012,0 hPa 0,0 l/m 6,2 km/h (2 Bft) W-NW 0,00 h 98 W/m 11,3 C 12,5 C 12,7 km/h (3 Bft)
24.05.2016 16:00 12,9 C 90 % 1011,9 hPa 0,0 l/m 7,2 km/h (2 Bft) W 0,00 h 75 W/m 11,3 C 12,3 C 12,7 km/h (3 Bft)
24.05.2016 17:00 12,9 C 90 % 1012,0 hPa 0,0 l/m 5,4 km/h (2 Bft) W 0,00 h 56 W/m 11,3 C 12,8 C 11,8 km/h (2 Bft)
24.05.2016 18:00 13,1 C 89 % 1012,0 hPa 0,0 l/m 5,9 km/h (2 Bft) W-SW 0,00 h 92 W/m 11,3 C 12,9 C 12,2 km/h (2 Bft)
24.05.2016 19:00 13,1 C 88 % 1012,2 hPa 0,0 l/m 6,0 km/h (2 Bft) W 0,00 h 63 W/m 11,1 C 12,8 C 12,1 km/h (2 Bft)
24.05.2016 20:00 12,7 C 88 % 1012,4 hPa 0,0 l/m 5,2 km/h (1 Bft) W 0,00 h 20 W/m 10,7 C 12,7 C 10,8 km/h (2 Bft)
24.05.2016 21:00 12,3 C 89 % 1012,7 hPa 0,0 l/m 5,0 km/h (1 Bft) W 0,00 h 5 W/m 10,5 C 12,3 C 9,7 km/h (2 Bft)
24.05.2016 22:00 12,2 C 91 % 1012,6 hPa 0,0 l/m 5,2 km/h (1 Bft) W 0,00 h 0 W/m 10,7 C 12,1 C 10,6 km/h (2 Bft)
24.05.2016 23:00 12,1 C 91 % 1012,6 hPa 0,0 l/m 6,1 km/h (2 Bft) W-SW 0,00 h 0 W/m 10,7 C 11,9 C 12,0 km/h (2 Bft)
25.05.2016 00:00 11,9 C 91 % 1012,6 hPa 0,0 l/m 5,2 km/h (1 Bft) SW 0,00 h 0 W/m 10,5 C 11,8 C 9,6 km/h (2 Bft)
25.05.2016 01:00 11,8 C 92 % 1012,6 hPa 0,0 l/m 6,0 km/h (2 Bft) SW 0,00 h 0 W/m 10,6 C 11,8 C 9,3 km/h (2 Bft)
25.05.2016 02:00 11,8 C 91 % 1012,5 hPa 0,0 l/m 7,8 km/h (2 Bft) SW 0,00 h 0 W/m 10,4 C 10,8 C 12,6 km/h (3 Bft)
25.05.2016 03:00 11,7 C 92 % 1012,4 hPa 0,0 l/m 7,2 km/h (2 Bft) SW 0,00 h 0 W/m 10,5 C 11,2 C 11,4 km/h (2 Bft)
25.05.2016 04:00 11,6 C 92 % 1012,4 hPa 0,0 l/m 6,3 km/h (2 Bft) SW 0,00 h 0 W/m 10,4 C 11,4 C 10,9 km/h (2 Bft)
25.05.2016 05:00 11,4 C 93 % 1012,5 hPa 0,0 l/m 7,0 km/h (2 Bft) SW 0,00 h 6 W/m 10,3 C 10,9 C 10,9 km/h (2 Bft)
25.05.2016 06:00 11,2 C 95 % 1012,6 hPa 0,0 l/m 7,7 km/h (2 Bft) SW 0,00 h 17 W/m 10,5 C 10,3 C 12,3 km/h (2 Bft)
25.05.2016 07:00 11,5 C 96 % 1012,8 hPa 0,0 l/m 7,8 km/h (2 Bft) SW 0,00 h 47 W/m 10,9 C 10,5 C 13,2 km/h (3 Bft)
25.05.2016 08:00 11,9 C 95 % 1012,9 hPa 0,0 l/m 10,3 km/h (2 Bft) SW 0,00 h 95 W/m 11,1 C 9,6 C 15,7 km/h (3 Bft)
25.05.2016 09:00 12,4 C 94 % 1013,2 hPa 0,0 l/m 8,0 km/h (2 Bft) SW 0,00 h 124 W/m 11,4 C 11,3 C 13,5 km/h (3 Bft)
25.05.2016 10:00 12,7 C 93 % 1013,6 hPa 0,0 l/m 6,7 km/h (2 Bft) S-SW 0,00 h 96 W/m 11,5 C 12,3 C 11,5 km/h (2 Bft)
25.05.2016 11:00 12,8 C 92 % 1013,8 hPa 0,0 l/m 7,4 km/h (2 Bft) SW 0,00 h 102 W/m 11,6 C 12,1 C 12,3 km/h (2 Bft)
25.05.2016 12:00 13,1 C 91 % 1013,9 hPa 0,0 l/m 7,0 km/h (2 Bft) SW 0,00 h 107 W/m 11,7 C 12,6 C 11,9 km/h (2 Bft)
25.05.2016 13:00 13,4 C 90 % 1013,9 hPa 0,0 l/m 7,2 km/h (2 Bft) SW 0,00 h 117 W/m 11,8 C 12,9 C 12,0 km/h (2 Bft)
25.05.2016 14:00 13,8 C 89 % 1014,0 hPa 0,0 l/m 5,8 km/h (2 Bft) SW 0,00 h 112 W/m 11,9 C 13,7 C 9,9 km/h (2 Bft)
25.05.2016 15:00 14,4 C 87 % 1014,2 hPa 0,0 l/m 4,5 km/h (1 Bft) W 0,00 h 153 W/m 12,3 C 14,3 C 8,7 km/h (2 Bft)
25.05.2016 16:00 15,1 C 86 % 1014,2 hPa 0,0 l/m 3,4 km/h (1 Bft) NW 0,00 h 117 W/m 12,7 C 15,1 C 6,8 km/h (2 Bft)
25.05.2016 17:00 14,3 C 89 % 1014,3 hPa 0,0 l/m 4,2 km/h (1 Bft) NW 0,00 h 50 W/m 12,6 C 14,3 C 7,5 km/h (2 Bft)
25.05.2016 18:00 14,2 C 91 % 1014,2 hPa 0,0 l/m 3,4 km/h (1 Bft) N-NW 0,00 h 73 W/m 12,7 C 14,2 C 6,9 km/h (2 Bft)
25.05.2016 19:00 14,4 C 89 % 1014,3 hPa 0,0 l/m 3,0 km/h (1 Bft) NW 0,00 h 52 W/m 12,5 C 14,4 C 5,8 km/h (2 Bft)
25.05.2016 20:00 13,9 C 89 % 1014,4 hPa 0,0 l/m 2,0 km/h (1 Bft) NW 0,00 h 16 W/m 12,1 C 13,9 C 4,5 km/h (1 Bft)
25.05.2016 21:00 13,6 C 88 % 1014,7 hPa 0,0 l/m 2,2 km/h (1 Bft) W-NW 0,00 h 5 W/m 11,7 C 13,6 C 4,8 km/h (1 Bft)
25.05.2016 22:00 13,5 C 89 % 1014,9 hPa 0,0 l/m 2,8 km/h (1 Bft) NW 0,00 h 0 W/m 11,6 C 13,5 C 5,5 km/h (2 Bft)
25.05.2016 23:00 13,3 C 90 % 1015,0 hPa 0,0 l/m 3,6 km/h (1 Bft) N-NW 0,00 h 0 W/m 11,6 C 13,3 C 6,6 km/h (2 Bft)
26.05.2016 00:00 12,9 C 91 % 1015,1 hPa 0,0 l/m 3,1 km/h (1 Bft) W 0,00 h 0 W/m 11,5 C 12,9 C 6,8 km/h (2 Bft)
26.05.2016 01:00 12,6 C 93 % 1015,0 hPa 1,8 l/m 4,5 km/h (1 Bft) W 0,00 h 0 W/m 11,6 C 12,6 C 8,9 km/h (2 Bft)
26.05.2016 02:00 12,5 C 95 % 1014,8 hPa 0,0 l/m 4,1 km/h (1 Bft) NW 0,00 h 0 W/m 11,7 C 12,5 C 8,1 km/h (2 Bft)
26.05.2016 03:00 12,6 C 95 % 1014,7 hPa 0,0 l/m 4,5 km/h (1 Bft) NW 0,00 h 0 W/m 11,8 C 12,6 C 8,8 km/h (2 Bft)
26.05.2016 04:00 12,4 C 95 % 1014,6 hPa 2,4 l/m 4,7 km/h (1 Bft) W-NW 0,00 h 0 W/m 11,7 C 12,4 C 11,3 km/h (2 Bft)
26.05.2016 05:00 12,3 C 96 % 1014,6 hPa 0,0 l/m 6,1 km/h (2 Bft) W-NW 0,00 h 0 W/m 11,7 C 12,1 C 13,3 km/h (3 Bft)
26.05.2016 06:00 12,2 C 96 % 1014,8 hPa 0,0 l/m 5,5 km/h (2 Bft) W 0,00 h 9 W/m 11,6 C 12,1 C 12,3 km/h (2 Bft)
26.05.2016 07:00 12,3 C 96 % 1015,0 hPa 0,0 l/m 5,3 km/h (1 Bft) W 0,00 h 13 W/m 11,7 C 12,2 C 12,1 km/h (2 Bft)
26.05.2016 08:00 12,4 C 97 % 1015,4 hPa 0,0 l/m 5,6 km/h (2 Bft) W 0,00 h 17 W/m 11,9 C 12,1 C 12,1 km/h (2 Bft)
26.05.2016 09:00 12,5 C 97 % 1015,6 hPa 0,4 l/m 6,5 km/h (2 Bft) W 0,00 h 41 W/m 12,1 C 12,1 C 12,3 km/h (2 Bft)
26.05.2016 10:00 12,6 C 97 % 1015,7 hPa 0,2 l/m 8,1 km/h (2 Bft) W 0,00 h 52 W/m 12,1 C 11,5 C 14,7 km/h (3 Bft)
26.05.2016 11:00 12,7 C 97 % 1015,9 hPa 0,2 l/m 6,7 km/h (2 Bft) W 0,00 h 52 W/m 12,2 C 12,2 C 13,3 km/h (3 Bft)
26.05.2016 12:00 12,9 C 97 % 1016,2 hPa 0,2 l/m 6,3 km/h (2 Bft) W 0,00 h 84 W/m 12,4 C 12,6 C 14,6 km/h (3 Bft)
26.05.2016 13:00 13,3 C 97 % 1016,5 hPa 0,0 l/m 7,2 km/h (2 Bft) W 0,00 h 126 W/m 12,8 C 12,6 C 15,5 km/h (3 Bft)
26.05.2016 14:00 13,9 C 95 % 1016,6 hPa 0,0 l/m 8,1 km/h (2 Bft) NW 0,00 h 195 W/m 13,0 C 12,8 C 17,4 km/h (3 Bft)
26.05.2016 15:00 13,9 C 92 % 1016,8 hPa 0,0 l/m 9,0 km/h (2 Bft) NW 0,00 h 141 W/m 12,6 C 12,4 C 17,0 km/h (3 Bft)
26.05.2016 16:00 14,5 C 89 % 1016,7 hPa 0,0 l/m 8,3 km/h (2 Bft) NW 0,00 h 228 W/m 12,7 C 13,4 C 16,2 km/h (3 Bft)
26.05.2016 17:00 15,0 C 87 % 1016,5 hPa 0,0 l/m 8,2 km/h (2 Bft) N-NW 0,10 h 215 W/m 12,8 C 14,0 C 16,2 km/h (3 Bft)
26.05.2016 18:00 15,1 C 85 % 1016,5 hPa 0,0 l/m 9,1 km/h (2 Bft) NW 0,35 h 250 W/m 12,7 C 13,7 C 16,1 km/h (3 Bft)
26.05.2016 19:00 14,4 C 87 % 1016,5 hPa 0,0 l/m 6,3 km/h (2 Bft) N-NW 0,05 h 97 W/m 12,3 C 14,2 C 11,6 km/h (2 Bft)
26.05.2016 20:00 13,7 C 89 % 1016,4 hPa 0,0 l/m 5,1 km/h (1 Bft) N-NW 0,00 h 13 W/m 12,0 C 13,7 C 10,1 km/h (2 Bft)
26.05.2016 21:00 13,4 C 91 % 1016,5 hPa 0,0 l/m 4,0 km/h (1 Bft) NW 0,00 h 5 W/m 11,9 C 13,4 C 7,8 km/h (2 Bft)
26.05.2016 22:00 13,0 C 92 % 1016,6 hPa 0,0 l/m 1,6 km/h (1 Bft) NW 0,00 h 0 W/m 11,8 C 13,0 C 4,4 km/h (1 Bft)
26.05.2016 23:00 13,1 C 92 % 1016,8 hPa 0,0 l/m 1,6 km/h (1 Bft) W 0,00 h 0 W/m 11,9 C 13,1 C 3,8 km/h (1 Bft)
27.05.2016 00:00 13,2 C 91 % 1016,7 hPa 0,0 l/m 1,8 km/h (1 Bft) W 0,00 h 0 W/m 11,8 C 13,2 C 3,8 km/h (1 Bft)
27.05.2016 01:00 12,7 C 93 % 1016,7 hPa 0,0 l/m 3,3 km/h (1 Bft) S-SW 0,00 h 0 W/m 11,6 C 12,7 C 5,1 km/h (1 Bft)
27.05.2016 02:00 12,5 C 94 % 1016,5 hPa 0,0 l/m 2,3 km/h (1 Bft) SW 0,00 h 0 W/m 11,5 C 12,5 C 3,9 km/h (1 Bft)
27.05.2016 03:00 12,7 C 94 % 1016,4 hPa 0,0 l/m 2,7 km/h (1 Bft) SW 0,00 h 0 W/m 11,8 C 12,7 C 5,7 km/h (2 Bft)
27.05.2016 04:00 12,7 C 94 % 1016,4 hPa 0,0 l/m 6,2 km/h (2 Bft) NW 0,00 h 0 W/m 11,8 C 12,4 C 12,0 km/h (2 Bft)
27.05.2016 05:00 12,7 C 95 % 1016,4 hPa 0,0 l/m 5,1 km/h (1 Bft) N-NW 0,00 h 10 W/m 11,9 C 12,7 C 9,8 km/h (2 Bft)
27.05.2016 06:00 13,0 C 96 % 1016,3 hPa 0,0 l/m 3,0 km/h (1 Bft) NW 0,00 h 17 W/m 12,3 C 13,0 C 6,3 km/h (2 Bft)
27.05.2016 07:00 13,7 C 95 % 1016,6 hPa 0,0 l/m 1,0 km/h (0 Bft) W-NW 0,00 h 35 W/m 12,9 C 13,7 C 2,6 km/h (1 Bft)
27.05.2016 08:00 13,8 C 95 % 1017,0 hPa 0,0 l/m 1,0 km/h (0 Bft) W-NW 0,00 h 28 W/m 13,0 C 13,8 C 3,2 km/h (1 Bft)
27.05.2016 09:00 14,3 C 93 % 1017,1 hPa 0,0 l/m 1,9 km/h (1 Bft) NO 0,00 h 97 W/m 13,2 C 14,3 C 4,9 km/h (1 Bft)
27.05.2016 10:00 15,4 C 88 % 1017,1 hPa 0,0 l/m 3,0 km/h (1 Bft) NO 0,00 h 215 W/m 13,4 C 15,4 C 7,5 km/h (2 Bft)
27.05.2016 11:00 18,2 C 77 % 1017,1 hPa 0,0 l/m 3,4 km/h (1 Bft) O-NO 0,90 h 604 W/m 14,1 C 18,2 C 7,5 km/h (2 Bft)
27.05.2016 12:00 19,5 C 71 % 1017,0 hPa 0,0 l/m 3,5 km/h (1 Bft) NO 0,60 h 556 W/m 14,1 C 19,4 C 8,0 km/h (2 Bft)
27.05.2016 13:00 19,5 C 69 % 1016,8 hPa 0,0 l/m 2,9 km/h (1 Bft) N-NO 0,05 h 320 W/m 13,6 C 19,5 C 6,7 km/h (2 Bft)
27.05.2016 14:00 18,9 C 74 % 1016,9 hPa 0,0 l/m 3,1 km/h (1 Bft) NO 0,00 h 194 W/m 14,1 C 18,9 C 6,4 km/h (2 Bft)
27.05.2016 15:00 18,5 C 77 % 1017,0 hPa 0,0 l/m 2,4 km/h (1 Bft) N 0,15 h 251 W/m 14,4 C 18,5 C 5,5 km/h (2 Bft)
27.05.2016 16:00 18,6 C 77 % 1016,7 hPa 0,0 l/m 2,6 km/h (1 Bft) N-NW 0,00 h 173 W/m 14,4 C 18,6 C 5,6 km/h (2 Bft)
27.05.2016 17:00 19,2 C 73 % 1016,4 hPa 0,0 l/m 3,4 km/h (1 Bft) N 0,60 h 413 W/m 14,3 C 19,2 C 7,2 km/h (2 Bft)
27.05.2016 18:00 19,5 C 73 % 1016,1 hPa 0,0 l/m 3,9 km/h (1 Bft) N-NW 0,95 h 313 W/m 14,5 C 19,5 C 8,8 km/h (2 Bft)
27.05.2016 19:00 18,3 C 77 % 1016,0 hPa 0,0 l/m 2,9 km/h (1 Bft) N-NO 0,45 h 148 W/m 14,3 C 18,3 C 6,9 km/h (2 Bft)
27.05.2016 20:00 16,8 C 84 % 1016,2 hPa 0,0 l/m 0,5 km/h (0 Bft) N 0,00 h 43 W/m 14,1 C 16,8 C 2,0 km/h (1 Bft)
27.05.2016 21:00 16,1 C 87 % 1016,4 hPa 0,0 l/m 0,1 km/h (0 Bft) N 0,00 h 9 W/m 13,9 C 16,1 C 1,4 km/h (1 Bft)
27.05.2016 22:00 15,5 C 87 % 1016,7 hPa 0,0 l/m 0,1 km/h (0 Bft) N 0,00 h 0 W/m 13,3 C 15,5 C 1,0 km/h (0 Bft)
27.05.2016 23:00 15,0 C 89 % 1016,7 hPa 0,0 l/m 0,6 km/h (0 Bft) O 0,00 h 0 W/m 13,2 C 15,0 C 2,4 km/h (1 Bft)
28.05.2016 00:00 14,4 C 89 % 1016,5 hPa 0,0 l/m 1,1 km/h (0 Bft) NO 0,00 h 0 W/m 12,6 C 14,4 C 3,7 km/h (1 Bft)
28.05.2016 01:00 14,0 C 90 % 1016,4 hPa 0,0 l/m 2,0 km/h (1 Bft) O-NO 0,00 h 0 W/m 12,4 C 14,0 C 5,7 km/h (2 Bft)
28.05.2016 02:00 13,8 C 88 % 1016,0 hPa 0,0 l/m 2,5 km/h (1 Bft) O-NO 0,00 h 0 W/m 11,9 C 13,8 C 7,1 km/h (2 Bft)
28.05.2016 03:00 13,5 C 87 % 1015,9 hPa 0,0 l/m 1,8 km/h (1 Bft) NO 0,00 h 0 W/m 11,3 C 13,5 C 5,4 km/h (1 Bft)
28.05.2016 04:00 12,9 C 89 % 1015,8 hPa 0,0 l/m 0,3 km/h (0 Bft) O 0,00 h 0 W/m 11,0 C 12,9 C 1,8 km/h (1 Bft)
28.05.2016 05:00 12,3 C 90 % 1015,7 hPa 0,0 l/m 0,4 km/h (0 Bft) SO 0,00 h 6 W/m 10,7 C 12,3 C 2,3 km/h (1 Bft)
28.05.2016 06:00 12,4 C 91 % 1015,6 hPa 0,0 l/m 0,8 km/h (0 Bft) O-NO 0,00 h 16 W/m 10,9 C 12,4 C 3,5 km/h (1 Bft)
28.05.2016 07:00 13,7 C 88 % 1015,5 hPa 0,0 l/m 3,1 km/h (1 Bft) NO 0,00 h 30 W/m 11,7 C 13,7 C 8,3 km/h (2 Bft)
28.05.2016 08:00 14,9 C 85 % 1015,6 hPa 0,0 l/m 3,7 km/h (1 Bft) NO 0,00 h 50 W/m 12,4 C 14,9 C 9,5 km/h (2 Bft)
28.05.2016 09:00 16,2 C 81 % 1015,5 hPa 0,0 l/m 3,9 km/h (1 Bft) O-NO 0,00 h 138 W/m 12,9 C 16,2 C 9,3 km/h (2 Bft)
28.05.2016 10:00 17,5 C 76 % 1015,3 hPa 0,0 l/m 4,4 km/h (1 Bft) O-SO 0,00 h 247 W/m 13,2 C 17,5 C 10,5 km/h (2 Bft)
28.05.2016 11:00 18,3 C 73 % 1015,1 hPa 0,0 l/m 4,6 km/h (1 Bft) O-SO 0,15 h 309 W/m 13,3 C 18,2 C 11,5 km/h (2 Bft)
28.05.2016 12:00 19,0 C 70 % 1014,9 hPa 0,0 l/m 3,3 km/h (1 Bft) O 0,00 h 185 W/m 13,4 C 19,0 C 8,0 km/h (2 Bft)
28.05.2016 13:00 19,2 C 70 % 1014,8 hPa 0,0 l/m 3,3 km/h (1 Bft) NO 0,00 h 205 W/m 13,6 C 19,2 C 9,4 km/h (2 Bft)
28.05.2016 14:00 18,7 C 74 % 1014,6 hPa 0,0 l/m 2,2 km/h (1 Bft) O-NO 0,00 h 104 W/m 13,9 C 18,7 C 5,8 km/h (2 Bft)
28.05.2016 15:00 18,4 C 80 % 1014,3 hPa 0,0 l/m 1,2 km/h (1 Bft) NO 0,00 h 131 W/m 14,8 C 18,4 C 3,4 km/h (1 Bft)
28.05.2016 16:00 18,3 C 84 % 1013,9 hPa 0,0 l/m 1,4 km/h (1 Bft) N-NW 0,00 h 91 W/m 15,5 C 18,3 C 3,6 km/h (1 Bft)
28.05.2016 17:00 18,6 C 81 % 1013,4 hPa 0,0 l/m 2,0 km/h (1 Bft) N 0,00 h 130 W/m 15,2 C 18,6 C 5,0 km/h (1 Bft)
28.05.2016 18:00 19,1 C 78 % 1013,0 hPa 0,0 l/m 1,2 km/h (1 Bft) NW 0,10 h 143 W/m 15,1 C 19,1 C 3,4 km/h (1 Bft)
28.05.2016 19:00 19,0 C 75 % 1012,7 hPa 0,0 l/m 2,6 km/h (1 Bft) NO 0,85 h 176 W/m 14,4 C 19,0 C 6,9 km/h (2 Bft)
28.05.2016 20:00 18,4 C 74 % 1012,8 hPa 0,0 l/m 3,5 km/h (1 Bft) NO 0,00 h 53 W/m 13,6 C 18,4 C 9,2 km/h (2 Bft)
28.05.2016 21:00 17,1 C 78 % 1012,8 hPa 0,0 l/m 2,7 km/h (1 Bft) O-NO 0,00 h 15 W/m 13,2 C 17,1 C 7,3 km/h (2 Bft)
28.05.2016 22:00 15,9 C 80 % 1013,0 hPa 0,0 l/m 2,8 km/h (1 Bft) NO 0,00 h 0 W/m 12,5 C 15,9 C 8,4 km/h (2 Bft)
28.05.2016 23:00 14,9 C 83 % 1013,1 hPa 0,0 l/m 2,5 km/h (1 Bft) O-NO 0,00 h 0 W/m 12,1 C 14,9 C 7,3 km/h (2 Bft)
29.05.2016 00:00 14,4 C 87 % 1013,0 hPa 0,0 l/m 2,7 km/h (1 Bft) NO 0,00 h 0 W/m 12,3 C 14,4 C 7,5 km/h (2 Bft)
29.05.2016 01:00 13,9 C 90 % 1012,6 hPa 0,0 l/m 3,3 km/h (1 Bft) N-NO 0,00 h 0 W/m 12,3 C 13,9 C 9,3 km/h (2 Bft)
29.05.2016 02:00 13,5 C 92 % 1012,2 hPa 0,0 l/m 2,5 km/h (1 Bft) O 0,00 h 0 W/m 12,1 C 13,5 C 7,1 km/h (2 Bft)
29.05.2016 03:00 13,0 C 93 % 1011,7 hPa 0,0 l/m 2,3 km/h (1 Bft) O 0,00 h 0 W/m 11,8 C 13,0 C 6,5 km/h (2 Bft)
29.05.2016 04:00 12,5 C 94 % 1011,5 hPa 0,0 l/m 3,1 km/h (1 Bft) NO 0,00 h 0 W/m 11,6 C 12,5 C 8,9 km/h (2 Bft)
29.05.2016 05:00 12,6 C 95 % 1011,4 hPa 0,0 l/m 4,3 km/h (1 Bft) O-NO 0,00 h 8 W/m 11,9 C 12,6 C 10,9 km/h (2 Bft)
29.05.2016 06:00 12,9 C 95 % 1011,3 hPa 0,0 l/m 4,0 km/h (1 Bft) N 0,00 h 20 W/m 12,1 C 12,9 C 10,3 km/h (2 Bft)
29.05.2016 07:00 13,2 C 94 % 1011,2 hPa 0,0 l/m 4,1 km/h (1 Bft) NO 0,00 h 40 W/m 12,3 C 13,2 C 10,4 km/h (2 Bft)
29.05.2016 08:00 13,8 C 93 % 1010,9 hPa 0,0 l/m 2,9 km/h (1 Bft) N-NO 0,00 h 71 W/m 12,8 C 13,8 C 8,4 km/h (2 Bft)
29.05.2016 09:00 14,6 C 91 % 1010,6 hPa 0,0 l/m 4,1 km/h (1 Bft) N-NW 0,00 h 103 W/m 13,1 C 14,6 C 10,7 km/h (2 Bft)
29.05.2016 10:00 15,4 C 88 % 1010,5 hPa 0,0 l/m 4,4 km/h (1 Bft) N-NW 0,00 h 165 W/m 13,4 C 15,4 C 12,0 km/h (2 Bft)
29.05.2016 11:00 15,8 C 87 % 1010,5 hPa 0,0 l/m 4,4 km/h (1 Bft) NO 0,00 h 153 W/m 13,7 C 15,8 C 10,9 km/h (2 Bft)
29.05.2016 12:00 16,9 C 87 % 1010,1 hPa 0,0 l/m 4,6 km/h (1 Bft) NO 0,00 h 199 W/m 14,6 C 16,8 C 12,2 km/h (2 Bft)
29.05.2016 13:00 16,0 C 93 % 1009,8 hPa 0,8 l/m 3,4 km/h (1 Bft) N-NO 0,00 h 79 W/m 14,8 C 16,0 C 8,8 km/h (2 Bft)
29.05.2016 14:00 16,3 C 95 % 1009,4 hPa 0,4 l/m 4,4 km/h (1 Bft) N 0,00 h 106 W/m 15,5 C 16,3 C 10,9 km/h (2 Bft)
29.05.2016 15:00 16,4 C 94 % 1009,1 hPa 0,8 l/m 4,4 km/h (1 Bft) NW 0,00 h 40 W/m 15,4 C 16,4 C 10,8 km/h (2 Bft)
29.05.2016 16:00 16,2 C 96 % 1009,1 hPa 2,4 l/m 4,2 km/h (1 Bft) NW 0,00 h 33 W/m 15,5 C 16,2 C 10,8 km/h (2 Bft)
29.05.2016 17:00 16,0 C 96 % 1008,7 hPa 3,0 l/m 4,6 km/h (1 Bft) NW 0,00 h 20 W/m 15,4 C 16,0 C 11,6 km/h (2 Bft)
29.05.2016 18:00 16,2 C 97 % 1008,5 hPa 1,0 l/m 6,7 km/h (2 Bft) N-NW 0,00 h 58 W/m 15,7 C 15,6 C 14,4 km/h (3 Bft)
29.05.2016 19:00 16,6 C 95 % 1007,9 hPa 0,0 l/m 8,8 km/h (2 Bft) N 0,00 h 81 W/m 15,8 C 15,4 C 17,3 km/h (3 Bft)
29.05.2016 20:00 16,1 C 95 % 1007,7 hPa 0,0 l/m 6,3 km/h (2 Bft) N 0,00 h 13 W/m 15,4 C 16,0 C 13,5 km/h (3 Bft)
29.05.2016 21:00 16,1 C 96 % 1007,6 hPa 0,0 l/m 5,7 km/h (2 Bft) N-NW 0,00 h 5 W/m 15,5 C 16,1 C 12,3 km/h (2 Bft)
29.05.2016 22:00 15,9 C 96 % 1007,3 hPa 0,0 l/m 2,2 km/h (1 Bft) N 0,00 h 0 W/m 15,3 C 15,9 C 5,4 km/h (2 Bft)
29.05.2016 23:00 15,9 C 97 % 1007,0 hPa 0,0 l/m 0,9 km/h (0 Bft) N-NO 0,00 h 0 W/m 15,4 C 15,9 C 3,4 km/h (1 Bft)
Min-Datum _ 24.05.16 27.05.16 23.05.16 - 23.05.16 - - - 24.05.16 24.05.16 23.05.16
_ Min-Zeit 09:36 12:54 06:42 - 00:06 - - - 07:00 03:03 00:06
Minimum _ 11,0 C 65 % 1006,6 hPa - 0,0 km/h (0 Bft) - - - 9,5 C 5,9 C 0,0 km/h (0 Bft)
Max-Datum _ 27.05.16 23.05.16 27.05.16 29.05.16 23.05.16 - 23.05.16 27.05.16 23.05.16 27.05.16 23.05.16
_ Max-Zeit 12:54 07:12 09:06 17:51 21:00 - 14:33 12:51 14:42 12:54 20:57
Maximum _ 21,6 C 97 % 1017,2 hPa 3,0 l/m 21,5 km/h
N-NW (4 Bft)
- 0,05 h 907 W/m 16,6 C 21,2 C 38,6 km/h
N (6 Bft)
Durchschnitt _ 14,3 C 90 % 1013,0 hPa #17,0 l/m 5,2 km/h (1 Bft) NW #5:36 h 103 W/m 12,6 C 13,8 C 10,5 km/h (2 Bft)
2016 Cux-Wetter.de -Die Nutzung der Wetterdaten nur mit ausdrcklicher Genehmigung